createdAt,value
2023-03-11T00:01:04.143Z,2.50
2023-03-11T00:03:35.367Z,2.50
2023-03-11T00:06:11.124Z,2.40
2023-03-11T00:08:58.288Z,2.40
2023-03-11T00:11:27.417Z,2.40
2023-03-11T00:14:06.786Z,2.40
2023-03-11T00:16:37.669Z,2.40
2023-03-11T00:19:07.622Z,2.50
2023-03-11T00:21:40.512Z,2.50
2023-03-11T00:24:12.055Z,2.40
2023-03-11T00:26:43.152Z,2.40
2023-03-11T00:32:06.830Z,2.40
2023-03-11T00:34:50.558Z,2.40
2023-03-11T00:37:24.708Z,2.40
2023-03-11T00:39:57.118Z,2.40
2023-03-11T00:42:35.682Z,2.40
2023-03-11T00:45:22.141Z,2.50
2023-03-11T00:47:52.879Z,2.40
2023-03-11T00:50:26.867Z,2.50
2023-03-11T00:53:05.910Z,2.50
2023-03-11T00:55:36.737Z,2.40
2023-03-11T00:58:07.672Z,2.40
2023-03-11T01:00:39.538Z,2.40
2023-03-11T01:03:17.853Z,2.40
2023-03-11T01:05:56.011Z,2.40
2023-03-11T01:08:29.646Z,2.40
2023-03-11T01:11:08.058Z,2.30
2023-03-11T01:13:41.137Z,2.30
2023-03-11T01:16:11.159Z,2.20
2023-03-11T01:18:39.898Z,2.20
2023-03-11T01:23:54.998Z,2.10
2023-03-11T01:26:24.805Z,2.10
2023-03-11T01:28:54.628Z,2.00
2023-03-11T01:31:24.372Z,2.00
2023-03-11T01:33:54.758Z,2.00
2023-03-11T01:36:29.515Z,2.00
2023-03-11T01:39:11.515Z,1.90
2023-03-11T01:41:41.954Z,1.90
2023-03-11T01:44:15.864Z,1.90
2023-03-11T01:47:21.356Z,1.90
2023-03-11T01:49:51.075Z,2.00
2023-03-11T01:52:24.904Z,1.90
2023-03-11T01:54:57.114Z,1.80
2023-03-11T02:00:12.415Z,1.70
2023-03-11T02:02:47.181Z,1.70
2023-03-11T02:05:18.039Z,1.70
2023-03-11T02:07:49.005Z,1.60
2023-03-11T02:10:29.333Z,1.60
2023-03-11T02:13:14.132Z,1.50
2023-03-11T02:15:46.331Z,1.50
2023-03-11T02:18:22.778Z,1.40
2023-03-11T02:21:11.837Z,1.50
2023-03-11T02:23:55.198Z,1.40
2023-03-11T02:26:37.361Z,1.40
2023-03-11T02:29:17.212Z,1.30
2023-03-11T02:32:00.702Z,1.40
2023-03-11T02:34:32.620Z,1.30
2023-03-11T02:37:08.815Z,1.30
2023-03-11T02:39:45.609Z,1.30
2023-03-11T02:42:23.745Z,1.30
2023-03-11T02:45:13.737Z,1.20
2023-03-11T02:47:52.290Z,1.20
2023-03-11T02:50:20.878Z,1.20
2023-03-11T02:52:51.206Z,1.10
2023-03-11T02:55:37.094Z,1.10
2023-03-11T02:58:07.941Z,1.10
2023-03-11T03:00:39.279Z,1.10
2023-03-11T03:03:08.335Z,1.00
2023-03-11T03:08:21.720Z,1.00
2023-03-11T03:10:59.746Z,0.90
2023-03-11T03:13:30.975Z,0.80
2023-03-11T03:16:06.336Z,0.60
2023-03-11T03:18:45.574Z,0.60
2023-03-11T03:21:15.880Z,0.60
2023-03-11T03:23:46.008Z,0.50
2023-03-11T03:26:15.967Z,0.50
2023-03-11T03:28:50.748Z,0.50
2023-03-11T03:31:23.143Z,0.50
2023-03-11T03:33:54.915Z,0.60
2023-03-11T03:36:48.333Z,0.60
2023-03-11T03:39:19.155Z,0.60
2023-03-11T03:41:47.835Z,0.60
2023-03-11T03:44:18.413Z,0.60
2023-03-11T03:46:49.585Z,0.70
2023-03-11T03:49:26.280Z,0.70
2023-03-11T03:51:58.047Z,0.80
2023-03-11T03:54:28.187Z,0.80
2023-03-11T03:56:59.648Z,0.80
2023-03-11T03:59:32.356Z,0.80
2023-03-11T04:02:09.323Z,0.70
2023-03-11T04:04:49.949Z,0.70
2023-03-11T04:10:11.937Z,0.60
2023-03-11T04:12:46.592Z,0.50
2023-03-11T04:15:16.290Z,0.50
2023-03-11T04:17:47.425Z,0.40
2023-03-11T04:20:19.062Z,0.30
2023-03-11T04:22:48.704Z,0.30
2023-03-11T04:25:18.457Z,0.20
2023-03-11T04:27:52.427Z,0.20
2023-03-11T04:30:22.460Z,0.10
2023-03-11T04:32:54.768Z,0.10
2023-03-11T04:35:25.107Z,0.10
2023-03-11T04:37:56.457Z,0.00
2023-03-11T04:43:10.566Z,-0.10
2023-03-11T04:45:41.110Z,-0.10
2023-03-11T04:48:15.934Z,-0.10
2023-03-11T04:50:48.865Z,-0.10
2023-03-11T04:53:17.517Z,-0.20
2023-03-11T04:58:40.759Z,-0.10
2023-03-11T05:03:57.665Z,0.00
2023-03-11T05:06:28.575Z,0.00
2023-03-11T05:08:59.455Z,-0.10
2023-03-11T05:11:46.103Z,-0.10
2023-03-11T05:14:23.836Z,-0.10
2023-03-11T05:19:42.962Z,-0.20
2023-03-11T05:24:58.725Z,-0.30
2023-03-11T05:27:45.090Z,-0.30
2023-03-11T05:30:16.627Z,-0.30
2023-03-11T05:35:33.512Z,-0.40
2023-03-11T05:38:15.928Z,-0.40
2023-03-11T05:40:45.521Z,-0.30
2023-03-11T05:46:07.393Z,-0.30
2023-03-11T05:48:44.953Z,-0.30
2023-03-11T05:51:20.196Z,-0.30
2023-03-11T05:53:51.013Z,-0.30
2023-03-11T05:56:22.609Z,-0.30
2023-03-11T05:58:52.634Z,-0.30
2023-03-11T06:01:22.335Z,-0.30
2023-03-11T06:03:52.036Z,-0.30
2023-03-11T06:06:24.677Z,-0.30
2023-03-11T06:08:56.295Z,-0.40
2023-03-11T06:11:29.786Z,-0.40
2023-03-11T06:14:01.917Z,-0.50
2023-03-11T06:16:30.708Z,-0.50
2023-03-11T06:19:01.207Z,-0.50
2023-03-11T06:21:34.862Z,-0.50
2023-03-11T06:24:03.875Z,-0.50
2023-03-11T06:26:33.579Z,-0.50
2023-03-11T06:29:05.644Z,-0.40
2023-03-11T06:31:35.002Z,-0.40
2023-03-11T06:34:12.645Z,-0.40
2023-03-11T06:36:43.794Z,-0.40
2023-03-11T06:39:15.943Z,-0.40
2023-03-11T06:41:45.122Z,-0.40
2023-03-11T06:44:16.983Z,-0.40
2023-03-11T06:46:45.883Z,-0.20
2023-03-11T06:49:16.005Z,-0.20
2023-03-11T06:51:47.684Z,-0.10
2023-03-11T06:54:21.398Z,-0.10
2023-03-11T06:56:50.700Z,0.00
2023-03-11T06:59:22.951Z,0.00
2023-03-11T07:01:54.528Z,0.10
2023-03-11T07:04:26.960Z,0.10
2023-03-11T07:06:57.957Z,0.10
2023-03-11T07:09:28.605Z,0.20
2023-03-11T07:12:00.715Z,0.30
2023-03-11T07:14:30.586Z,0.30
2023-03-11T07:17:01.217Z,0.40
2023-03-11T07:19:32.145Z,0.40
2023-03-11T07:22:06.181Z,0.40
2023-03-11T07:24:34.935Z,0.40
2023-03-11T07:27:08.382Z,0.50
2023-03-11T07:29:38.351Z,0.50
2023-03-11T07:32:12.283Z,0.50
2023-03-11T07:34:52.000Z,0.60
2023-03-11T07:37:23.574Z,0.70
2023-03-11T07:40:09.266Z,1.00
2023-03-11T07:42:40.548Z,1.30
2023-03-11T07:45:11.005Z,1.50
2023-03-11T07:47:42.845Z,1.70
2023-03-11T07:50:13.355Z,1.90
2023-03-11T07:52:43.720Z,2.30
2023-03-11T07:55:15.406Z,2.70
2023-03-11T07:57:44.885Z,3.30
2023-03-11T08:00:18.056Z,4.00
2023-03-11T08:02:46.883Z,4.50
2023-03-11T08:05:19.247Z,5.60
2023-03-11T08:07:51.715Z,7.50
2023-03-11T08:10:21.653Z,8.90
2023-03-11T08:12:53.084Z,9.70
2023-03-11T08:15:22.900Z,9.20
2023-03-11T08:17:51.896Z,9.10
2023-03-11T08:20:22.617Z,9.00
2023-03-11T08:22:58.872Z,9.70
2023-03-11T08:25:28.009Z,10.60
2023-03-11T08:30:42.044Z,12.20
2023-03-11T08:33:15.965Z,11.80
2023-03-11T08:35:44.946Z,10.90
2023-03-11T08:38:17.123Z,10.70
2023-03-11T08:40:47.016Z,10.70
2023-03-11T08:43:19.595Z,10.20
2023-03-11T08:45:50.297Z,10.00
2023-03-11T08:48:21.035Z,10.10
2023-03-11T08:50:54.350Z,10.60
2023-03-11T08:53:30.321Z,11.40
2023-03-11T08:56:00.219Z,12.10
2023-03-11T08:58:29.329Z,12.60
2023-03-11T09:01:00.963Z,12.50
2023-03-11T09:03:33.131Z,13.10
2023-03-11T09:06:03.302Z,14.30
2023-03-11T09:08:34.511Z,15.60
2023-03-11T09:11:13.752Z,16.60
2023-03-11T09:13:51.230Z,17.40
2023-03-11T09:16:22.094Z,18.40
2023-03-11T09:18:52.370Z,19.20
2023-03-11T09:21:21.603Z,19.90
2023-03-11T09:23:55.596Z,20.30
2023-03-11T09:26:25.033Z,19.80
2023-03-11T09:28:54.308Z,19.60
2023-03-11T09:31:23.104Z,19.10
2023-03-11T09:33:55.826Z,18.10
2023-03-11T09:36:26.444Z,16.70
2023-03-11T09:38:58.517Z,15.50
2023-03-11T09:41:33.425Z,14.50
2023-03-11T09:44:34.219Z,13.80
2023-03-11T09:47:39.076Z,13.10
2023-03-11T09:50:32.245Z,12.60
2023-03-11T09:53:42.072Z,12.60
2023-03-11T09:56:24.775Z,12.90
2023-03-11T09:58:59.700Z,12.90
2023-03-11T10:01:33.442Z,12.50
2023-03-11T10:04:13.932Z,13.00
2023-03-11T10:06:48.900Z,13.40
2023-03-11T10:09:34.056Z,13.60
2023-03-11T10:12:32.701Z,12.90
2023-03-11T10:15:23.594Z,12.60
2023-03-11T10:18:49.049Z,13.00
2023-03-11T10:21:29.499Z,13.30
2023-03-11T10:24:25.458Z,13.30
2023-03-11T10:26:59.822Z,13.20
2023-03-11T10:29:34.159Z,12.40
2023-03-11T10:32:10.939Z,12.40
2023-03-11T10:34:47.884Z,13.50
2023-03-11T10:37:21.660Z,15.10
2023-03-11T10:39:51.809Z,17.30
2023-03-11T10:42:25.040Z,19.20
2023-03-11T10:45:14.830Z,20.60
2023-03-11T10:47:45.084Z,21.40
2023-03-11T10:50:22.100Z,22.20
2023-03-11T10:53:13.406Z,21.90
2023-03-11T10:55:50.954Z,21.50
2023-03-11T10:58:22.390Z,22.00
2023-03-11T11:01:08.691Z,22.60
2023-03-11T11:03:42.985Z,23.60
2023-03-11T11:06:23.119Z,24.20
2023-03-11T11:09:32.994Z,25.00
2023-03-11T11:12:08.365Z,25.00
2023-03-11T11:14:47.420Z,24.40
2023-03-11T11:17:35.662Z,24.00
2023-03-11T11:20:13.306Z,24.40
2023-03-11T11:22:50.752Z,22.60
2023-03-11T11:25:29.651Z,21.20
2023-03-11T11:28:00.608Z,21.10
2023-03-11T11:30:33.389Z,20.20
2023-03-11T11:33:29.922Z,18.70
2023-03-11T11:36:03.407Z,18.50
2023-03-11T11:38:35.941Z,18.00
2023-03-11T11:41:08.782Z,17.20
2023-03-11T11:43:59.832Z,16.60
2023-03-11T11:46:39.575Z,17.30
2023-03-11T11:49:21.184Z,18.70
2023-03-11T11:51:57.960Z,18.40
2023-03-11T11:54:34.993Z,17.90
2023-03-11T11:57:13.159Z,16.60
2023-03-11T11:59:44.239Z,15.60
2023-03-11T12:02:34.776Z,16.60
2023-03-11T12:05:14.394Z,17.20
2023-03-11T12:08:00.813Z,16.70
2023-03-11T12:10:40.329Z,16.50
2023-03-11T12:13:51.572Z,15.70
2023-03-11T12:16:34.723Z,14.10
2023-03-11T12:19:05.704Z,13.20
2023-03-11T12:21:58.101Z,13.30
2023-03-11T12:25:07.032Z,13.90
2023-03-11T12:27:47.285Z,13.70
2023-03-11T12:30:21.386Z,13.80
2023-03-11T12:32:56.730Z,13.60
2023-03-11T12:35:30.298Z,13.90
2023-03-11T12:38:19.966Z,14.20
2023-03-11T12:41:10.969Z,14.00
2023-03-11T12:44:22.727Z,14.10
2023-03-11T12:47:22.793Z,14.20
2023-03-11T12:49:57.334Z,13.90
2023-03-11T12:52:31.220Z,14.00
2023-03-11T12:55:39.353Z,13.70
2023-03-11T12:58:34.281Z,12.90
2023-03-11T13:01:41.813Z,12.50
2023-03-11T13:04:41.945Z,12.10
2023-03-11T13:07:47.732Z,11.70
2023-03-11T13:10:21.673Z,12.30
2023-03-11T13:12:59.834Z,13.00
2023-03-11T13:15:53.707Z,13.70
2023-03-11T13:18:26.120Z,13.50
2023-03-11T13:21:00.494Z,12.80
2023-03-11T13:23:35.192Z,12.70
2023-03-11T13:26:45.044Z,12.30
2023-03-11T13:29:52.508Z,12.00
2023-03-11T13:32:37.098Z,12.10
2023-03-11T13:35:30.536Z,12.00
2023-03-11T13:38:23.111Z,11.50
2023-03-11T13:40:54.038Z,11.10
2023-03-11T13:43:25.083Z,10.80
2023-03-11T13:45:58.796Z,10.60
2023-03-11T13:48:37.488Z,10.30
2023-03-11T13:51:19.198Z,10.00
2023-03-11T13:54:26.015Z,10.20
2023-03-11T13:57:00.797Z,11.90
2023-03-11T13:59:35.201Z,13.70
2023-03-11T14:02:21.836Z,14.80
2023-03-11T14:05:00.933Z,14.00
2023-03-11T14:07:39.182Z,13.10
2023-03-11T14:10:32.629Z,13.80
2023-03-11T14:13:18.527Z,14.70
2023-03-11T14:15:58.570Z,15.40
2023-03-11T14:18:42.297Z,15.10
2023-03-11T14:21:17.587Z,15.40
2023-03-11T14:23:51.142Z,15.90
2023-03-11T14:26:23.929Z,15.80
2023-03-11T14:28:58.765Z,14.80
2023-03-11T14:31:37.042Z,14.50
2023-03-11T14:34:19.366Z,14.40
2023-03-11T14:36:54.914Z,14.10
2023-03-11T14:39:34.034Z,14.20
2023-03-11T14:42:20.307Z,14.60
2023-03-11T14:44:51.613Z,14.50
2023-03-11T14:47:28.443Z,13.80
2023-03-11T14:50:02.013Z,12.90
2023-03-11T14:52:39.312Z,12.20
2023-03-11T14:55:15.311Z,11.80
2023-03-11T14:57:49.892Z,11.80
2023-03-11T15:00:26.438Z,12.00
2023-03-11T15:03:19.281Z,11.60
2023-03-11T15:05:58.314Z,11.40
2023-03-11T15:08:36.091Z,11.80
2023-03-11T15:11:24.120Z,12.30
2023-03-11T15:13:54.552Z,12.80
2023-03-11T15:16:33.869Z,12.90
2023-03-11T15:19:23.572Z,12.90
2023-03-11T15:22:03.157Z,12.70
2023-03-11T15:24:36.273Z,12.30
2023-03-11T15:27:06.512Z,11.80
2023-03-11T15:29:37.602Z,11.20
2023-03-11T15:32:41.530Z,10.70
2023-03-11T15:35:18.872Z,10.40
2023-03-11T15:37:51.334Z,10.00
2023-03-11T15:40:42.375Z,9.80
2023-03-11T15:43:30.489Z,9.40
2023-03-11T15:46:01.767Z,9.10
2023-03-11T15:48:33.805Z,8.90
2023-03-11T15:51:05.350Z,8.70
2023-03-11T15:53:38.363Z,8.40
2023-03-11T15:56:24.485Z,8.30
2023-03-11T15:58:55.436Z,8.20
2023-03-11T16:01:28.819Z,8.10
2023-03-11T16:03:59.281Z,7.90
2023-03-11T16:06:29.750Z,7.90
2023-03-11T16:09:02.537Z,7.90
2023-03-11T16:11:37.389Z,7.80
2023-03-11T16:14:08.442Z,7.80
2023-03-11T16:16:38.855Z,7.70
2023-03-11T16:19:10.006Z,7.60
2023-03-11T16:21:46.931Z,7.50
2023-03-11T16:24:24.925Z,7.60
2023-03-11T16:26:58.236Z,7.60
2023-03-11T16:29:28.692Z,7.60
2023-03-11T16:32:05.161Z,7.50
2023-03-11T16:34:35.615Z,7.50
2023-03-11T16:37:06.088Z,7.40
2023-03-11T16:39:40.392Z,7.30
2023-03-11T16:42:16.201Z,7.20
2023-03-11T16:44:46.963Z,7.10
2023-03-11T16:47:17.084Z,7.10
2023-03-11T16:49:46.337Z,7.10
2023-03-11T16:52:23.246Z,7.10
2023-03-11T16:54:57.232Z,7.00
2023-03-11T16:57:33.031Z,6.90
2023-03-11T17:00:06.741Z,6.90
2023-03-11T17:02:36.750Z,6.90
2023-03-11T17:05:07.583Z,6.80
2023-03-11T17:07:39.992Z,6.70
2023-03-11T17:10:13.397Z,6.70
2023-03-11T17:13:34.717Z,6.70
2023-03-11T17:16:11.455Z,6.70
2023-03-11T17:18:44.398Z,6.60
2023-03-11T17:21:32.288Z,6.60
2023-03-11T17:24:11.974Z,6.60
2023-03-11T17:26:42.825Z,6.60
2023-03-11T17:29:13.290Z,6.60
2023-03-11T17:31:46.024Z,6.60
2023-03-11T17:34:33.478Z,6.70
2023-03-11T17:37:10.018Z,6.60
2023-03-11T17:39:41.330Z,6.60
2023-03-11T17:42:37.449Z,6.60
2023-03-11T17:45:11.581Z,6.60
2023-03-11T17:47:42.073Z,6.50
2023-03-11T17:50:13.392Z,6.50
2023-03-11T17:52:43.260Z,6.40
2023-03-11T17:55:14.098Z,6.30
2023-03-11T17:57:45.795Z,6.20
2023-03-11T18:00:31.240Z,6.10
2023-03-11T18:03:06.296Z,6.10
2023-03-11T18:05:38.309Z,6.00
2023-03-11T18:08:12.536Z,5.90
2023-03-11T18:10:43.264Z,5.90
2023-03-11T18:13:21.554Z,5.90
2023-03-11T18:16:01.259Z,5.90
2023-03-11T18:18:36.410Z,6.00
2023-03-11T18:21:10.619Z,6.00
2023-03-11T18:23:42.145Z,6.00
2023-03-11T18:26:15.448Z,6.00
2023-03-11T18:28:46.798Z,6.00
2023-03-11T18:31:27.163Z,6.00
2023-03-11T18:34:14.690Z,6.00
2023-03-11T18:36:47.279Z,6.00
2023-03-11T18:39:16.465Z,6.00
2023-03-11T18:41:46.942Z,6.10
2023-03-11T18:44:18.682Z,6.10
2023-03-11T18:46:49.193Z,6.10
2023-03-11T18:49:22.378Z,6.10
2023-03-11T18:51:51.248Z,6.10
2023-03-11T18:54:22.484Z,6.10
2023-03-11T18:56:53.440Z,6.00
2023-03-11T18:59:37.786Z,5.80
2023-03-11T19:02:08.259Z,5.70
2023-03-11T19:04:40.546Z,5.60
2023-03-11T19:07:19.545Z,5.40
2023-03-11T19:10:06.998Z,5.20
2023-03-11T19:12:39.626Z,5.10
2023-03-11T19:15:14.760Z,5.10
2023-03-11T19:18:06.184Z,5.10
2023-03-11T19:20:42.677Z,5.00
2023-03-11T19:23:20.316Z,5.00
2023-03-11T19:26:02.488Z,5.10
2023-03-11T19:28:32.955Z,5.10
2023-03-11T19:31:04.253Z,5.10
2023-03-11T19:33:36.756Z,5.10
2023-03-11T19:36:12.965Z,5.10
2023-03-11T19:38:43.850Z,5.10
2023-03-11T19:41:25.948Z,5.10
2023-03-11T19:43:56.705Z,5.20
2023-03-11T19:46:35.038Z,5.10
2023-03-11T19:49:08.019Z,5.10
2023-03-11T19:51:49.990Z,5.20
2023-03-11T19:54:23.322Z,5.20
2023-03-11T19:56:55.301Z,5.30
2023-03-11T19:59:51.082Z,5.20
2023-03-11T20:02:21.572Z,5.20
2023-03-11T20:04:58.379Z,5.20
2023-03-11T20:07:30.136Z,5.20
2023-03-11T20:10:06.820Z,5.10
2023-03-11T20:13:02.020Z,5.10
2023-03-11T20:15:33.679Z,5.10
2023-03-11T20:18:23.364Z,5.10
2023-03-11T20:20:53.230Z,5.00
2023-03-11T20:23:35.059Z,4.90
2023-03-11T20:26:10.238Z,4.80
2023-03-11T20:28:56.851Z,4.70
2023-03-11T20:31:28.167Z,4.70
2023-03-11T20:34:09.563Z,4.70
2023-03-11T20:37:03.812Z,4.70
2023-03-11T20:39:58.098Z,4.80
2023-03-11T20:42:28.909Z,4.80
2023-03-11T20:45:06.507Z,4.80
2023-03-11T20:47:38.398Z,4.70
2023-03-11T20:50:25.811Z,4.60
2023-03-11T20:52:58.345Z,4.50
2023-03-11T20:55:33.232Z,4.40
2023-03-11T20:58:03.137Z,4.40
2023-03-11T21:00:34.225Z,4.40
2023-03-11T21:03:12.683Z,4.40
2023-03-11T21:05:49.288Z,4.40
2023-03-11T21:08:20.402Z,4.40
2023-03-11T21:11:08.214Z,4.40
2023-03-11T21:13:37.939Z,4.50
2023-03-11T21:16:13.182Z,4.50
2023-03-11T21:18:54.347Z,4.50
2023-03-11T21:21:25.585Z,4.60
2023-03-11T21:23:58.905Z,4.60
2023-03-11T21:26:35.455Z,4.50
2023-03-11T21:29:11.916Z,4.50
2023-03-11T21:31:48.823Z,4.60
2023-03-11T21:34:31.936Z,4.60
2023-03-11T21:37:05.428Z,4.60
2023-03-11T21:39:34.586Z,4.60
2023-03-11T21:42:06.447Z,4.60
2023-03-11T21:44:38.125Z,4.60
2023-03-11T21:47:08.516Z,4.50
2023-03-11T21:49:39.422Z,4.40
2023-03-11T21:52:11.810Z,4.30
2023-03-11T21:54:48.828Z,4.20
2023-03-11T21:57:49.646Z,4.10
2023-03-11T22:00:20.343Z,4.00
2023-03-11T22:02:51.012Z,3.90
2023-03-11T22:05:21.396Z,3.90
2023-03-11T22:07:51.650Z,3.80
2023-03-11T22:10:24.076Z,3.80
2023-03-11T22:12:59.772Z,3.70
2023-03-11T22:16:01.353Z,3.70
2023-03-11T22:18:32.738Z,3.70
2023-03-11T22:21:03.681Z,3.60
2023-03-11T22:23:35.789Z,3.60
2023-03-11T22:26:07.137Z,3.50
2023-03-11T22:28:53.218Z,3.50
2023-03-11T22:31:23.026Z,3.40
2023-03-11T22:33:53.454Z,3.40
2023-03-11T22:36:24.513Z,3.40
2023-03-11T22:38:59.742Z,3.40
2023-03-11T22:41:31.836Z,3.30
2023-03-11T22:44:03.606Z,3.30
2023-03-11T22:46:41.535Z,3.30
2023-03-11T22:49:17.808Z,3.30
2023-03-11T22:51:55.501Z,3.30
2023-03-11T22:57:09.116Z,3.30
2023-03-11T22:59:52.586Z,3.30
2023-03-11T23:02:24.935Z,3.30
2023-03-11T23:05:06.729Z,3.30
2023-03-11T23:07:46.003Z,3.20
2023-03-11T23:10:23.974Z,3.10
2023-03-11T23:13:05.385Z,3.10
2023-03-11T23:15:37.538Z,3.00
2023-03-11T23:18:09.013Z,3.00
2023-03-11T23:20:55.078Z,3.00
2023-03-11T23:23:51.086Z,2.90
2023-03-11T23:26:28.345Z,3.10
2023-03-11T23:28:58.801Z,3.10
2023-03-11T23:31:32.061Z,3.00
2023-03-11T23:34:13.475Z,3.00
2023-03-11T23:36:43.790Z,2.90
2023-03-11T23:39:22.076Z,3.00
2023-03-11T23:41:56.836Z,3.10
2023-03-11T23:44:42.624Z,3.30
2023-03-11T23:47:17.095Z,3.40
2023-03-11T23:52:39.056Z,3.50
2023-03-11T23:55:09.667Z,3.60
2023-03-11T23:57:48.604Z,3.60
